Terminal Aerodrome Forecast
Issued by NWS

Home | Current Version | Previous Version | Text Only | Print | Product List | Glossary On
Versions: 1 2 3 4 5 6 7 8 9 10 11 12 13 14 15 16
000
FTUS45 KPIH 270500
TAFSUN
TAF
KSUN 270520Z 2706/2806 32007KT P6SM FEW070
     FM271800 13006KT P6SM SCT120
     FM280300 32009KT P6SM FEW120
      AMD LTD TO CLD VIS AND WIND TIL 271300=

USA.gov is the U.S. government's official web portal to all federal, state and local government web resources and services.